sensor_id;sensor_type;location;lat;lon;timestamp;pressure;altitude;pressure_sealevel;temperature;humidity
32933;BME280;19444;50.518;10.870;2022-07-06T00:00:52;97049.56;;;16.86;96.53
32933;BME280;19444;50.518;10.870;2022-07-06T00:03:48;97051.44;;;16.73;99.06
32933;BME280;19444;50.518;10.870;2022-07-06T00:06:51;97049.53;;;16.74;98.71
32933;BME280;19444;50.518;10.870;2022-07-06T00:09:48;97052.09;;;16.70;98.08
32933;BME280;19444;50.518;10.870;2022-07-06T00:12:44;97046.41;;;16.63;97.40
32933;BME280;19444;50.518;10.870;2022-07-06T00:15:41;97044.91;;;16.74;96.88
32933;BME280;19444;50.518;10.870;2022-07-06T00:18:38;97041.56;;;16.57;97.91
32933;BME280;19444;50.518;10.870;2022-07-06T00:21:35;97039.38;;;16.50;99.31
32933;BME280;19444;50.518;10.870;2022-07-06T00:24:32;97042.97;;;16.54;99.07
32933;BME280;19444;50.518;10.870;2022-07-06T00:27:29;97046.47;;;16.55;98.82
32933;BME280;19444;50.518;10.870;2022-07-06T00:30:26;97047.25;;;16.22;100.00
32933;BME280;19444;50.518;10.870;2022-07-06T00:33:23;97045.47;;;16.05;100.00
32933;BME280;19444;50.518;10.870;2022-07-06T00:36:20;97046.03;;;15.90;100.00
32933;BME280;19444;50.518;10.870;2022-07-06T00:39:17;97056.66;;;15.74;100.00
32933;BME280;19444;50.518;10.870;2022-07-06T00:42:16;97053.41;;;15.81;100.00
32933;BME280;19444;50.518;10.870;2022-07-06T00:45:15;97061.25;;;15.74;100.00
32933;BME280;19444;50.518;10.870;2022-07-06T00:48:12;97059.72;;;15.64;100.00
32933;BME280;19444;50.518;10.870;2022-07-06T00:51:10;97057.88;;;15.47;100.00
32933;BME280;19444;50.518;10.870;2022-07-06T00:54:07;97067.63;;;15.31;100.00
32933;BME280;19444;50.518;10.870;2022-07-06T00:57:04;97058.06;;;15.33;100.00
32933;BME280;19444;50.518;10.870;2022-07-06T01:00:07;97059.22;;;15.24;100.00
32933;BME280;19444;50.518;10.870;2022-07-06T01:03:04;97054.25;;;15.34;100.00
32933;BME280;19444;50.518;10.870;2022-07-06T01:06:01;97049.50;;;15.31;100.00
32933;BME280;19444;50.518;10.870;2022-07-06T01:08:59;97049.78;;;15.09;100.00
32933;BME280;19444;50.518;10.870;2022-07-06T01:11:56;97052.97;;;15.02;100.00
32933;BME280;19444;50.518;10.870;2022-07-06T01:14:53;97053.13;;;14.97;100.00
32933;BME280;19444;50.518;10.870;2022-07-06T01:17:51;97059.81;;;14.91;100.00
32933;BME280;19444;50.518;10.870;2022-07-06T01:20:48;97053.31;;;14.92;100.00
32933;BME280;19444;50.518;10.870;2022-07-06T01:23:47;97046.69;;;14.72;100.00
32933;BME280;19444;50.518;10.870;2022-07-06T01:26:44;97052.81;;;14.90;100.00
32933;BME280;19444;50.518;10.870;2022-07-06T01:29:41;97047.63;;;14.76;100.00
32933;BME280;19444;50.518;10.870;2022-07-06T01:32:38;97048.44;;;14.60;100.00
32933;BME280;19444;50.518;10.870;2022-07-06T01:35:35;97053.38;;;14.49;100.00
32933;BME280;19444;50.518;10.870;2022-07-06T01:38:51;97060.50;;;14.36;100.00
32933;BME280;19444;50.518;10.870;2022-07-06T01:41:49;97050.03;;;14.17;100.00
32933;BME280;19444;50.518;10.870;2022-07-06T01:44:46;97050.31;;;14.16;100.00
32933;BME280;19444;50.518;10.870;2022-07-06T01:47:43;97050.00;;;14.43;100.00
32933;BME280;19444;50.518;10.870;2022-07-06T01:50:40;97055.91;;;14.37;100.00
32933;BME280;19444;50.518;10.870;2022-07-06T01:53:36;97052.72;;;14.26;100.00
32933;BME280;19444;50.518;10.870;2022-07-06T01:56:33;97047.00;;;14.02;100.00
32933;BME280;19444;50.518;10.870;2022-07-06T01:59:30;97054.44;;;13.87;100.00
32933;BME280;19444;50.518;10.870;2022-07-06T02:02:27;97054.25;;;13.75;100.00
32933;BME280;19444;50.518;10.870;2022-07-06T02:05:24;97060.84;;;13.52;100.00
32933;BME280;19444;50.518;10.870;2022-07-06T02:08:21;97062.00;;;13.68;100.00
32933;BME280;19444;50.518;10.870;2022-07-06T02:11:18;97063.59;;;13.69;100.00
32933;BME280;19444;50.518;10.870;2022-07-06T02:14:15;97064.88;;;13.89;100.00
32933;BME280;19444;50.518;10.870;2022-07-06T02:17:12;97070.00;;;13.42;100.00
32933;BME280;19444;50.518;10.870;2022-07-06T02:20:09;97066.22;;;13.52;100.00
32933;BME280;19444;50.518;10.870;2022-07-06T02:23:06;97067.91;;;13.30;100.00
32933;BME280;19444;50.518;10.870;2022-07-06T02:26:03;97072.94;;;13.23;100.00
32933;BME280;19444;50.518;10.870;2022-07-06T02:29:00;97066.03;;;13.40;100.00
32933;BME280;19444;50.518;10.870;2022-07-06T02:31:57;97069.81;;;13.30;100.00
32933;BME280;19444;50.518;10.870;2022-07-06T02:34:54;97072.25;;;13.18;100.00
32933;BME280;19444;50.518;10.870;2022-07-06T02:37:51;97073.88;;;12.96;100.00
32933;BME280;19444;50.518;10.870;2022-07-06T02:40:48;97074.13;;;13.08;100.00
32933;BME280;19444;50.518;10.870;2022-07-06T02:43:45;97076.28;;;12.75;100.00
32933;BME280;19444;50.518;10.870;2022-07-06T02:46:42;97075.59;;;12.92;100.00
32933;BME280;19444;50.518;10.870;2022-07-06T02:49:39;97075.41;;;12.89;100.00
32933;BME280;19444;50.518;10.870;2022-07-06T02:52:36;97085.53;;;12.83;100.00
32933;BME280;19444;50.518;10.870;2022-07-06T02:55:36;97068.44;;;12.88;100.00
32933;BME280;19444;50.518;10.870;2022-07-06T02:58:33;97077.34;;;12.97;100.00
32933;BME280;19444;50.518;10.870;2022-07-06T03:01:30;97080.81;;;12.66;100.00
32933;BME280;19444;50.518;10.870;2022-07-06T03:04:27;97075.72;;;12.87;100.00
32933;BME280;19444;50.518;10.870;2022-07-06T03:07:24;97081.09;;;12.87;100.00
32933;BME280;19444;50.518;10.870;2022-07-06T03:10:21;97081.25;;;12.82;100.00
32933;BME280;19444;50.518;10.870;2022-07-06T03:13:18;97079.53;;;12.86;100.00
32933;BME280;19444;50.518;10.870;2022-07-06T03:16:15;97091.16;;;12.73;100.00
32933;BME280;19444;50.518;10.870;2022-07-06T03:19:11;97086.03;;;12.63;100.00
32933;BME280;19444;50.518;10.870;2022-07-06T03:22:09;97092.44;;;12.75;100.00
32933;BME280;19444;50.518;10.870;2022-07-06T03:25:06;97092.81;;;12.82;100.00
32933;BME280;19444;50.518;10.870;2022-07-06T03:28:03;97098.66;;;12.85;100.00
32933;BME280;19444;50.518;10.870;2022-07-06T03:31:00;97098.13;;;12.15;100.00
32933;BME280;19444;50.518;10.870;2022-07-06T03:33:57;97095.25;;;12.12;100.00
32933;BME280;19444;50.518;10.870;2022-07-06T03:36:54;97103.13;;;12.44;100.00
32933;BME280;19444;50.518;10.870;2022-07-06T03:39:51;97093.69;;;12.33;100.00
32933;BME280;19444;50.518;10.870;2022-07-06T03:42:48;97104.25;;;11.93;100.00
32933;BME280;19444;50.518;10.870;2022-07-06T03:45:45;97097.56;;;12.05;100.00
32933;BME280;19444;50.518;10.870;2022-07-06T03:48:42;97101.81;;;12.19;100.00
32933;BME280;19444;50.518;10.870;2022-07-06T03:51:39;97096.75;;;12.18;100.00
32933;BME280;19444;50.518;10.870;2022-07-06T03:54:37;97095.94;;;12.17;100.00
32933;BME280;19444;50.518;10.870;2022-07-06T03:57:33;97095.16;;;12.03;100.00
32933;BME280;19444;50.518;10.870;2022-07-06T04:00:30;97092.34;;;12.22;100.00
32933;BME280;19444;50.518;10.870;2022-07-06T04:03:27;97099.69;;;12.52;100.00
32933;BME280;19444;50.518;10.870;2022-07-06T04:06:29;97103.41;;;12.43;100.00
32933;BME280;19444;50.518;10.870;2022-07-06T04:09:27;97102.97;;;12.27;100.00
32933;BME280;19444;50.518;10.870;2022-07-06T04:12:24;97103.97;;;12.31;100.00
32933;BME280;19444;50.518;10.870;2022-07-06T04:15:22;97108.34;;;12.27;100.00
32933;BME280;19444;50.518;10.870;2022-07-06T04:18:19;97104.09;;;12.48;100.00
32933;BME280;19444;50.518;10.870;2022-07-06T04:21:16;97105.31;;;12.42;100.00
32933;BME280;19444;50.518;10.870;2022-07-06T04:24:13;97104.41;;;12.47;100.00
32933;BME280;19444;50.518;10.870;2022-07-06T04:27:10;97106.44;;;12.64;100.00
32933;BME280;19444;50.518;10.870;2022-07-06T04:30:08;97105.63;;;12.86;100.00
32933;BME280;19444;50.518;10.870;2022-07-06T04:33:05;97112.00;;;12.90;100.00
32933;BME280;19444;50.518;10.870;2022-07-06T04:36:02;97122.75;;;12.90;100.00
32933;BME280;19444;50.518;10.870;2022-07-06T04:38:59;97121.09;;;12.80;100.00
32933;BME280;19444;50.518;10.870;2022-07-06T04:41:56;97115.28;;;13.09;100.00
32933;BME280;19444;50.518;10.870;2022-07-06T04:44:53;97116.91;;;13.19;100.00
32933;BME280;19444;50.518;10.870;2022-07-06T04:47:50;97120.63;;;13.31;100.00
32933;BME280;19444;50.518;10.870;2022-07-06T04:50:47;97128.59;;;13.14;100.00
32933;BME280;19444;50.518;10.870;2022-07-06T04:53:43;97123.91;;;13.20;100.00
32933;BME280;19444;50.518;10.870;2022-07-06T04:56:40;97121.34;;;13.46;100.00
32933;BME280;19444;50.518;10.870;2022-07-06T04:59:37;97112.00;;;13.52;100.00
32933;BME280;19444;50.518;10.870;2022-07-06T05:02:34;97110.31;;;13.64;100.00
32933;BME280;19444;50.518;10.870;2022-07-06T05:05:31;97110.81;;;13.75;100.00
32933;BME280;19444;50.518;10.870;2022-07-06T05:08:28;97123.72;;;14.04;100.00
32933;BME280;19444;50.518;10.870;2022-07-06T05:11:26;97117.53;;;14.04;100.00
32933;BME280;19444;50.518;10.870;2022-07-06T05:14:23;97109.97;;;14.23;100.00
32933;BME280;19444;50.518;10.870;2022-07-06T05:17:20;97116.16;;;14.32;100.00
32933;BME280;19444;50.518;10.870;2022-07-06T05:20:24;97127.13;;;14.36;100.00
32933;BME280;19444;50.518;10.870;2022-07-06T05:23:21;97121.44;;;14.46;100.00
32933;BME280;19444;50.518;10.870;2022-07-06T05:26:18;97128.88;;;14.58;100.00
32933;BME280;19444;50.518;10.870;2022-07-06T05:29:15;97122.69;;;14.66;100.00
32933;BME280;19444;50.518;10.870;2022-07-06T05:32:12;97127.28;;;14.91;100.00
32933;BME280;19444;50.518;10.870;2022-07-06T05:35:09;97117.88;;;15.06;100.00
32933;BME280;19444;50.518;10.870;2022-07-06T05:38:26;97125.16;;;15.14;100.00
32933;BME280;19444;50.518;10.870;2022-07-06T05:41:24;97118.50;;;15.20;100.00
32933;BME280;19444;50.518;10.870;2022-07-06T05:44:27;97118.97;;;15.22;100.00
32933;BME280;19444;50.518;10.870;2022-07-06T05:47:23;97126.38;;;15.34;100.00
32933;BME280;19444;50.518;10.870;2022-07-06T05:50:39;97128.06;;;15.56;100.00
32933;BME280;19444;50.518;10.870;2022-07-06T05:53:36;97118.47;;;15.76;100.00
32933;BME280;19444;50.518;10.870;2022-07-06T05:56:33;97111.94;;;15.77;100.00
32933;BME280;19444;50.518;10.870;2022-07-06T05:59:30;97116.13;;;15.95;100.00
32933;BME280;19444;50.518;10.870;2022-07-06T06:02:39;97118.38;;;15.93;100.00
32933;BME280;19444;50.518;10.870;2022-07-06T06:05:37;97124.31;;;16.07;100.00
32933;BME280;19444;50.518;10.870;2022-07-06T06:08:33;97118.22;;;16.19;100.00
32933;BME280;19444;50.518;10.870;2022-07-06T06:11:30;97122.63;;;16.24;100.00
32933;BME280;19444;50.518;10.870;2022-07-06T06:14:27;97120.47;;;16.38;100.00
32933;BME280;19444;50.518;10.870;2022-07-06T06:17:24;97125.50;;;16.48;96.56
32933;BME280;19444;50.518;10.870;2022-07-06T06:20:21;97126.53;;;16.35;100.00
32933;BME280;19444;50.518;10.870;2022-07-06T06:23:18;97123.91;;;16.47;100.00
32933;BME280;19444;50.518;10.870;2022-07-06T06:26:15;97136.09;;;16.53;99.14
32933;BME280;19444;50.518;10.870;2022-07-06T06:29:12;97136.94;;;16.74;100.00
32933;BME280;19444;50.518;10.870;2022-07-06T06:32:09;97141.84;;;16.52;100.00
32933;BME280;19444;50.518;10.870;2022-07-06T06:35:06;97136.34;;;16.69;100.00
32933;BME280;19444;50.518;10.870;2022-07-06T06:38:03;97141.31;;;16.58;100.00
32933;BME280;19444;50.518;10.870;2022-07-06T06:41:00;97143.75;;;16.51;100.00
32933;BME280;19444;50.518;10.870;2022-07-06T06:43:58;97139.09;;;16.60;100.00
32933;BME280;19444;50.518;10.870;2022-07-06T06:46:55;97149.72;;;16.65;100.00
32933;BME280;19444;50.518;10.870;2022-07-06T06:49:52;97139.41;;;16.80;100.00
32933;BME280;19444;50.518;10.870;2022-07-06T06:52:50;97156.03;;;16.90;100.00
32933;BME280;19444;50.518;10.870;2022-07-06T06:55:47;97146.19;;;17.06;97.93
32933;BME280;19444;50.518;10.870;2022-07-06T06:58:44;97152.44;;;16.86;100.00
32933;BME280;19444;50.518;10.870;2022-07-06T07:02:01;97150.56;;;17.44;100.00
32933;BME280;19444;50.518;10.870;2022-07-06T07:04:58;97148.53;;;17.29;100.00
32933;BME280;19444;50.518;10.870;2022-07-06T07:07:55;97152.03;;;16.96;100.00
32933;BME280;19444;50.518;10.870;2022-07-06T07:11:00;97154.69;;;17.17;93.60
32933;BME280;19444;50.518;10.870;2022-07-06T07:13:57;97146.63;;;17.09;100.00
32933;BME280;19444;50.518;10.870;2022-07-06T07:16:54;97143.72;;;17.14;100.00
32933;BME280;19444;50.518;10.870;2022-07-06T07:19:51;97154.13;;;17.12;100.00
32933;BME280;19444;50.518;10.870;2022-07-06T07:22:48;97145.13;;;17.20;100.00
32933;BME280;19444;50.518;10.870;2022-07-06T07:25:45;97147.22;;;17.47;97.65
32933;BME280;19444;50.518;10.870;2022-07-06T07:28:42;97149.59;;;17.61;100.00
32933;BME280;19444;50.518;10.870;2022-07-06T07:31:39;97150.50;;;17.65;100.00
32933;BME280;19444;50.518;10.870;2022-07-06T07:34:35;97153.03;;;17.70;100.00
32933;BME280;19444;50.518;10.870;2022-07-06T07:37:32;97143.03;;;17.50;99.44
32933;BME280;19444;50.518;10.870;2022-07-06T07:40:29;97155.97;;;17.32;97.86
32933;BME280;19444;50.518;10.870;2022-07-06T07:43:27;97155.19;;;17.31;100.00
32933;BME280;19444;50.518;10.870;2022-07-06T07:46:23;97152.09;;;17.66;100.00
32933;BME280;19444;50.518;10.870;2022-07-06T07:49:20;97152.34;;;17.73;100.00
32933;BME280;19444;50.518;10.870;2022-07-06T07:52:18;97147.50;;;18.03;83.69
32933;BME280;19444;50.518;10.870;2022-07-06T07:55:14;97150.31;;;17.70;100.00
32933;BME280;19444;50.518;10.870;2022-07-06T07:58:31;97150.78;;;17.84;100.00
32933;BME280;19444;50.518;10.870;2022-07-06T08:01:28;97162.63;;;17.34;100.00
32933;BME280;19444;50.518;10.870;2022-07-06T08:04:25;97157.09;;;17.31;100.00
32933;BME280;19444;50.518;10.870;2022-07-06T08:07:22;97157.81;;;17.40;100.00
32933;BME280;19444;50.518;10.870;2022-07-06T08:10:19;97149.44;;;17.33;100.00
32933;BME280;19444;50.518;10.870;2022-07-06T08:13:17;97149.13;;;18.44;100.00
32933;BME280;19444;50.518;10.870;2022-07-06T08:16:14;97143.53;;;18.25;96.08
32933;BME280;19444;50.518;10.870;2022-07-06T08:19:11;97146.06;;;18.46;96.51
32933;BME280;19444;50.518;10.870;2022-07-06T08:22:11;97141.38;;;18.31;100.00
32933;BME280;19444;50.518;10.870;2022-07-06T08:25:09;97152.34;;;18.10;98.12
32933;BME280;19444;50.518;10.870;2022-07-06T08:28:06;97141.94;;;18.24;100.00
32933;BME280;19444;50.518;10.870;2022-07-06T08:31:03;97153.25;;;18.38;94.69
32933;BME280;19444;50.518;10.870;2022-07-06T08:34:01;97156.75;;;17.90;94.92
32933;BME280;19444;50.518;10.870;2022-07-06T08:36:59;97158.81;;;18.05;94.14
32933;BME280;19444;50.518;10.870;2022-07-06T08:39:56;97147.41;;;18.77;94.65
32933;BME280;19444;50.518;10.870;2022-07-06T08:42:54;97141.47;;;19.90;86.98
32933;BME280;19444;50.518;10.870;2022-07-06T08:45:53;97139.44;;;20.38;86.80
32933;BME280;19444;50.518;10.870;2022-07-06T08:48:51;97143.94;;;19.95;80.33
32933;BME280;19444;50.518;10.870;2022-07-06T08:51:48;97153.28;;;19.50;76.34
32933;BME280;19444;50.518;10.870;2022-07-06T08:54:45;97150.84;;;19.61;77.02
32933;BME280;19444;50.518;10.870;2022-07-06T08:57:44;97152.69;;;19.13;78.54
32933;BME280;19444;50.518;10.870;2022-07-06T09:00:42;97155.63;;;19.08;65.09
32933;BME280;19444;50.518;10.870;2022-07-06T09:03:41;97161.47;;;19.66;66.54
32933;BME280;19444;50.518;10.870;2022-07-06T09:06:42;97145.78;;;19.75;68.75
32933;BME280;19444;50.518;10.870;2022-07-06T09:09:40;97151.16;;;19.44;60.63
32933;BME280;19444;50.518;10.870;2022-07-06T09:12:37;97152.63;;;19.69;69.70
32933;BME280;19444;50.518;10.870;2022-07-06T09:15:36;97139.72;;;19.98;63.41
32933;BME280;19444;50.518;10.870;2022-07-06T09:18:39;97138.72;;;21.57;64.31
32933;BME280;19444;50.518;10.870;2022-07-06T09:21:38;97148.59;;;20.45;62.69
32933;BME280;19444;50.518;10.870;2022-07-06T09:24:42;97146.13;;;19.89;63.67
32933;BME280;19444;50.518;10.870;2022-07-06T09:27:45;97145.31;;;20.56;58.57
32933;BME280;19444;50.518;10.870;2022-07-06T09:30:44;97146.78;;;19.55;58.83
32933;BME280;19444;50.518;10.870;2022-07-06T09:34:06;97142.03;;;20.31;58.11
32933;BME280;19444;50.518;10.870;2022-07-06T09:37:03;97135.63;;;20.23;60.28
32933;BME280;19444;50.518;10.870;2022-07-06T09:40:16;97146.47;;;20.93;57.06
32933;BME280;19444;50.518;10.870;2022-07-06T09:43:23;97134.06;;;20.22;63.61
32933;BME280;19444;50.518;10.870;2022-07-06T09:46:20;97131.88;;;21.90;54.46
32933;BME280;19444;50.518;10.870;2022-07-06T09:49:21;97138.25;;;21.97;48.22
32933;BME280;19444;50.518;10.870;2022-07-06T09:52:21;97141.72;;;21.29;57.91
32933;BME280;19444;50.518;10.870;2022-07-06T09:55:22;97150.78;;;20.75;53.15
32933;BME280;19444;50.518;10.870;2022-07-06T09:58:20;97140.19;;;21.97;51.76
32933;BME280;19444;50.518;10.870;2022-07-06T10:01:38;97143.41;;;20.95;46.53
32933;BME280;19444;50.518;10.870;2022-07-06T10:04:36;97142.25;;;21.57;45.50
32933;BME280;19444;50.518;10.870;2022-07-06T10:07:33;97136.63;;;21.70;48.19
32933;BME280;19444;50.518;10.870;2022-07-06T10:10:30;97125.66;;;21.43;44.95
32933;BME280;19444;50.518;10.870;2022-07-06T10:13:27;97113.97;;;22.41;41.91
32933;BME280;19444;50.518;10.870;2022-07-06T10:16:26;97108.75;;;22.06;42.37
32933;BME280;19444;50.518;10.870;2022-07-06T10:19:27;97124.47;;;22.13;42.50
32933;BME280;19444;50.518;10.870;2022-07-06T10:22:24;97140.94;;;21.28;44.14
32933;BME280;19444;50.518;10.870;2022-07-06T10:25:21;97130.22;;;21.58;41.64
32933;BME280;19444;50.518;10.870;2022-07-06T10:28:19;97145.97;;;21.26;41.76
32933;BME280;19444;50.518;10.870;2022-07-06T10:31:17;97130.13;;;21.78;40.65
32933;BME280;19444;50.518;10.870;2022-07-06T10:34:17;97128.81;;;22.44;44.15
32933;BME280;19444;50.518;10.870;2022-07-06T10:37:27;97111.22;;;24.38;40.88
32933;BME280;19444;50.518;10.870;2022-07-06T10:40:33;97102.53;;;23.70;39.04
32933;BME280;19444;50.518;10.870;2022-07-06T10:43:49;97126.53;;;22.80;41.24
32933;BME280;19444;50.518;10.870;2022-07-06T10:46:56;97130.50;;;22.03;39.29
32933;BME280;19444;50.518;10.870;2022-07-06T10:49:59;97130.38;;;22.19;39.94
32933;BME280;19444;50.518;10.870;2022-07-06T10:53:00;97132.19;;;22.34;40.40
32933;BME280;19444;50.518;10.870;2022-07-06T10:55:57;97119.25;;;22.87;38.49
32933;BME280;19444;50.518;10.870;2022-07-06T10:58:54;97111.47;;;22.59;38.39
32933;BME280;19444;50.518;10.870;2022-07-06T11:02:17;97129.28;;;22.50;39.21
32933;BME280;19444;50.518;10.870;2022-07-06T11:05:40;97100.38;;;23.12;39.63
32933;BME280;19444;50.518;10.870;2022-07-06T11:08:59;97100.66;;;24.36;41.77
32933;BME280;19444;50.518;10.870;2022-07-06T11:11:56;97106.06;;;24.26;37.34
32933;BME280;19444;50.518;10.870;2022-07-06T11:14:53;97113.94;;;23.79;38.19
32933;BME280;19444;50.518;10.870;2022-07-06T11:18:11;97110.97;;;22.50;41.16
32933;BME280;19444;50.518;10.870;2022-07-06T11:21:23;97122.81;;;20.59;39.92
32933;BME280;19444;50.518;10.870;2022-07-06T11:24:26;97117.50;;;22.76;38.57
32933;BME280;19444;50.518;10.870;2022-07-06T11:27:23;97096.13;;;24.69;37.88
32933;BME280;19444;50.518;10.870;2022-07-06T11:30:22;97098.19;;;24.21;38.35
32933;BME280;19444;50.518;10.870;2022-07-06T11:33:32;97108.09;;;23.84;37.44
32933;BME280;19444;50.518;10.870;2022-07-06T11:36:29;97120.31;;;24.53;40.07
32933;BME280;19444;50.518;10.870;2022-07-06T11:39:35;97100.84;;;24.10;38.06
32933;BME280;19444;50.518;10.870;2022-07-06T11:42:32;97097.50;;;25.18;39.87
32933;BME280;19444;50.518;10.870;2022-07-06T11:45:29;97101.44;;;27.36;39.29
32933;BME280;19444;50.518;10.870;2022-07-06T11:48:26;97100.69;;;25.52;35.99
32933;BME280;19444;50.518;10.870;2022-07-06T11:51:28;97105.22;;;24.18;34.83
32933;BME280;19444;50.518;10.870;2022-07-06T11:54:26;97093.75;;;23.98;36.00
32933;BME280;19444;50.518;10.870;2022-07-06T11:57:23;97098.63;;;25.03;41.10
32933;BME280;19444;50.518;10.870;2022-07-06T12:00:21;97090.47;;;26.27;39.93
32933;BME280;19444;50.518;10.870;2022-07-06T12:03:17;97096.72;;;25.39;36.09
32933;BME280;19444;50.518;10.870;2022-07-06T12:06:24;97082.88;;;24.89;38.13
32933;BME280;19444;50.518;10.870;2022-07-06T12:09:21;97078.44;;;24.59;35.89
32933;BME280;19444;50.518;10.870;2022-07-06T12:12:18;97066.53;;;26.14;36.62
32933;BME280;19444;50.518;10.870;2022-07-06T12:15:15;97071.78;;;27.58;41.45
32933;BME280;19444;50.518;10.870;2022-07-06T12:18:12;97081.09;;;25.86;35.87
32933;BME280;19444;50.518;10.870;2022-07-06T12:21:12;97094.44;;;24.47;40.21
32933;BME280;19444;50.518;10.870;2022-07-06T12:24:10;97086.91;;;22.63;38.66
32933;BME280;19444;50.518;10.870;2022-07-06T12:27:14;97096.00;;;20.80;39.83
32933;BME280;19444;50.518;10.870;2022-07-06T12:30:13;97073.28;;;23.81;37.81
32933;BME280;19444;50.518;10.870;2022-07-06T12:33:18;97070.44;;;24.26;37.04
32933;BME280;19444;50.518;10.870;2022-07-06T12:36:15;97075.75;;;24.63;35.88
32933;BME280;19444;50.518;10.870;2022-07-06T12:39:14;97072.75;;;26.50;37.16
32933;BME280;19444;50.518;10.870;2022-07-06T12:42:14;97082.03;;;24.78;36.06
32933;BME280;19444;50.518;10.870;2022-07-06T12:45:16;97071.03;;;22.42;35.90
32933;BME280;19444;50.518;10.870;2022-07-06T12:48:13;97061.47;;;25.34;36.06
32933;BME280;19444;50.518;10.870;2022-07-06T12:51:10;97050.72;;;27.37;36.49
32933;BME280;19444;50.518;10.870;2022-07-06T12:54:14;97057.56;;;25.88;36.08
32933;BME280;19444;50.518;10.870;2022-07-06T12:57:14;97049.31;;;25.77;37.74
32933;BME280;19444;50.518;10.870;2022-07-06T13:00:12;97065.56;;;24.63;34.38
32933;BME280;19444;50.518;10.870;2022-07-06T13:03:10;97060.66;;;25.26;36.79
32933;BME280;19444;50.518;10.870;2022-07-06T13:06:07;97067.56;;;24.74;37.51
32933;BME280;19444;50.518;10.870;2022-07-06T13:09:04;97064.63;;;25.78;39.50
32933;BME280;19444;50.518;10.870;2022-07-06T13:12:01;97043.44;;;25.36;34.15
32933;BME280;19444;50.518;10.870;2022-07-06T13:14:58;97040.25;;;27.18;37.53
32933;BME280;19444;50.518;10.870;2022-07-06T13:17:55;97050.16;;;23.72;33.84
32933;BME280;19444;50.518;10.870;2022-07-06T13:20:52;97045.03;;;23.67;33.67
32933;BME280;19444;50.518;10.870;2022-07-06T13:23:49;97055.69;;;23.82;33.67
32933;BME280;19444;50.518;10.870;2022-07-06T13:26:46;97041.03;;;25.03;33.76
32933;BME280;19444;50.518;10.870;2022-07-06T13:29:43;97044.34;;;23.80;33.65
32933;BME280;19444;50.518;10.870;2022-07-06T13:32:40;97043.03;;;23.60;39.60
32933;BME280;19444;50.518;10.870;2022-07-06T13:35:37;97048.06;;;25.04;33.98
32933;BME280;19444;50.518;10.870;2022-07-06T13:38:33;97041.78;;;26.28;31.67
32933;BME280;19444;50.518;10.870;2022-07-06T13:41:31;97029.56;;;26.50;30.97
32933;BME280;19444;50.518;10.870;2022-07-06T13:44:28;97034.13;;;27.48;35.79
32933;BME280;19444;50.518;10.870;2022-07-06T13:47:25;97046.66;;;23.31;35.65
32933;BME280;19444;50.518;10.870;2022-07-06T13:50:22;97046.41;;;23.46;35.70
32933;BME280;19444;50.518;10.870;2022-07-06T13:53:19;97036.75;;;25.16;33.25
32933;BME280;19444;50.518;10.870;2022-07-06T13:56:17;97040.50;;;23.92;35.17
32933;BME280;19444;50.518;10.870;2022-07-06T13:59:14;97045.31;;;23.58;39.73
32933;BME280;19444;50.518;10.870;2022-07-06T14:02:10;97040.09;;;23.87;36.80
32933;BME280;19444;50.518;10.870;2022-07-06T14:05:08;97036.34;;;25.32;35.00
32933;BME280;19444;50.518;10.870;2022-07-06T14:08:05;97039.59;;;23.70;36.93
32933;BME280;19444;50.518;10.870;2022-07-06T14:11:04;97034.78;;;25.23;36.50
32933;BME280;19444;50.518;10.870;2022-07-06T14:14:01;97029.22;;;24.88;36.77
32933;BME280;19444;50.518;10.870;2022-07-06T14:16:58;97021.47;;;25.22;36.06
32933;BME280;19444;50.518;10.870;2022-07-06T14:19:55;97035.50;;;24.88;34.32
32933;BME280;19444;50.518;10.870;2022-07-06T14:22:52;97038.22;;;26.42;34.31
32933;BME280;19444;50.518;10.870;2022-07-06T14:25:50;97040.28;;;25.48;33.06
32933;BME280;19444;50.518;10.870;2022-07-06T14:28:47;97024.00;;;23.78;36.13
32933;BME280;19444;50.518;10.870;2022-07-06T14:31:44;97024.31;;;24.31;34.77
32933;BME280;19444;50.518;10.870;2022-07-06T14:34:41;97028.00;;;24.75;35.66
32933;BME280;19444;50.518;10.870;2022-07-06T14:37:38;97029.13;;;24.56;35.31
32933;BME280;19444;50.518;10.870;2022-07-06T14:40:36;97025.41;;;24.20;33.91
32933;BME280;19444;50.518;10.870;2022-07-06T14:43:32;97033.09;;;24.69;33.51
32933;BME280;19444;50.518;10.870;2022-07-06T14:46:30;97027.66;;;23.96;35.45
32933;BME280;19444;50.518;10.870;2022-07-06T14:49:27;97031.47;;;22.62;36.55
32933;BME280;19444;50.518;10.870;2022-07-06T14:52:24;97037.41;;;23.46;35.30
32933;BME280;19444;50.518;10.870;2022-07-06T14:55:21;97036.78;;;23.22;37.30
32933;BME280;19444;50.518;10.870;2022-07-06T14:58:18;97027.38;;;25.45;34.36
32933;BME280;19444;50.518;10.870;2022-07-06T15:01:15;97032.75;;;24.95;32.87
32933;BME280;19444;50.518;10.870;2022-07-06T15:04:12;97021.34;;;23.89;34.93
32933;BME280;19444;50.518;10.870;2022-07-06T15:07:09;97027.72;;;25.22;34.97
32933;BME280;19444;50.518;10.870;2022-07-06T15:10:07;97020.59;;;24.79;34.27
32933;BME280;19444;50.518;10.870;2022-07-06T15:13:05;97015.59;;;25.20;33.56
32933;BME280;19444;50.518;10.870;2022-07-06T15:16:02;97019.91;;;25.49;32.65
32933;BME280;19444;50.518;10.870;2022-07-06T15:18:59;97014.09;;;24.28;33.56
32933;BME280;19444;50.518;10.870;2022-07-06T15:21:56;97010.28;;;24.47;34.54
32933;BME280;19444;50.518;10.870;2022-07-06T15:24:53;97012.44;;;22.69;34.64
32933;BME280;19444;50.518;10.870;2022-07-06T15:27:51;97009.59;;;23.37;36.41